sensor_id;sensor_type;location;lat;lon;timestamp;P1;durP1;ratioP1;P2;durP2;ratioP2
529;SDS011;251;48.704;9.210;2022-12-18T00:01:57;14.25;;;10.48;;
529;SDS011;251;48.704;9.210;2022-12-18T00:04:31;13.65;;;10.10;;
529;SDS011;251;48.704;9.210;2022-12-18T00:07:01;19.13;;;12.40;;
529;SDS011;251;48.704;9.210;2022-12-18T00:09:41;14.18;;;10.68;;
529;SDS011;251;48.704;9.210;2022-12-18T00:12:08;12.75;;;9.13;;
529;SDS011;251;48.704;9.210;2022-12-18T00:14:49;15.32;;;9.07;;
529;SDS011;251;48.704;9.210;2022-12-18T00:17:28;17.88;;;10.27;;
529;SDS011;251;48.704;9.210;2022-12-18T00:22:52;15.88;;;10.52;;
529;SDS011;251;48.704;9.210;2022-12-18T00:25:23;13.38;;;9.20;;
529;SDS011;251;48.704;9.210;2022-12-18T00:28:10;15.65;;;9.90;;
529;SDS011;251;48.704;9.210;2022-12-18T00:30:42;17.25;;;10.18;;
529;SDS011;251;48.704;9.210;2022-12-18T00:33:13;17.45;;;10.82;;
529;SDS011;251;48.704;9.210;2022-12-18T00:35:43;14.30;;;9.82;;
529;SDS011;251;48.704;9.210;2022-12-18T00:38:20;14.05;;;9.85;;
529;SDS011;251;48.704;9.210;2022-12-18T00:40:51;20.05;;;11.10;;
529;SDS011;251;48.704;9.210;2022-12-18T00:43:23;12.82;;;9.30;;
529;SDS011;251;48.704;9.210;2022-12-18T00:46:04;14.65;;;9.52;;
529;SDS011;251;48.704;9.210;2022-12-18T00:48:40;13.32;;;9.95;;
529;SDS011;251;48.704;9.210;2022-12-18T00:51:15;15.48;;;11.23;;
529;SDS011;251;48.704;9.210;2022-12-18T00:53:50;15.40;;;10.77;;
529;SDS011;251;48.704;9.210;2022-12-18T00:56:38;13.38;;;9.30;;
529;SDS011;251;48.704;9.210;2022-12-18T00:59:16;15.07;;;11.55;;
529;SDS011;251;48.704;9.210;2022-12-18T01:01:52;12.90;;;10.63;;
529;SDS011;251;48.704;9.210;2022-12-18T01:04:21;22.83;;;12.20;;
529;SDS011;251;48.704;9.210;2022-12-18T01:06:51;16.48;;;12.00;;
529;SDS011;251;48.704;9.210;2022-12-18T01:09:21;20.30;;;11.90;;
529;SDS011;251;48.704;9.210;2022-12-18T01:11:54;18.52;;;10.93;;
529;SDS011;251;48.704;9.210;2022-12-18T01:14:25;12.93;;;10.18;;
529;SDS011;251;48.704;9.210;2022-12-18T01:16:55;14.25;;;10.98;;
529;SDS011;251;48.704;9.210;2022-12-18T01:19:30;20.75;;;12.25;;
529;SDS011;251;48.704;9.210;2022-12-18T01:21:57;21.20;;;12.80;;
529;SDS011;251;48.704;9.210;2022-12-18T01:24:24;16.15;;;13.25;;
529;SDS011;251;48.704;9.210;2022-12-18T01:26:51;23.50;;;13.48;;
529;SDS011;251;48.704;9.210;2022-12-18T01:29:18;23.88;;;14.93;;
529;SDS011;251;48.704;9.210;2022-12-18T01:31:45;23.35;;;12.57;;
529;SDS011;251;48.704;9.210;2022-12-18T01:34:13;16.35;;;12.02;;
529;SDS011;251;48.704;9.210;2022-12-18T01:36:41;20.52;;;11.98;;
529;SDS011;251;48.704;9.210;2022-12-18T01:39:09;15.15;;;10.95;;
529;SDS011;251;48.704;9.210;2022-12-18T01:41:40;17.55;;;13.07;;
529;SDS011;251;48.704;9.210;2022-12-18T01:47:29;17.70;;;11.45;;
529;SDS011;251;48.704;9.210;2022-12-18T01:50:00;18.60;;;13.57;;
529;SDS011;251;48.704;9.210;2022-12-18T01:52:31;19.30;;;15.18;;
529;SDS011;251;48.704;9.210;2022-12-18T01:54:59;14.35;;;12.13;;
529;SDS011;251;48.704;9.210;2022-12-18T01:57:28;17.58;;;12.30;;
529;SDS011;251;48.704;9.210;2022-12-18T01:59:56;20.08;;;13.85;;
529;SDS011;251;48.704;9.210;2022-12-18T02:02:27;19.00;;;13.75;;
529;SDS011;251;48.704;9.210;2022-12-18T02:04:54;15.73;;;11.38;;
529;SDS011;251;48.704;9.210;2022-12-18T02:07:24;23.05;;;13.52;;
529;SDS011;251;48.704;9.210;2022-12-18T02:09:58;15.63;;;9.57;;
529;SDS011;251;48.704;9.210;2022-12-18T02:12:30;20.17;;;13.98;;
529;SDS011;251;48.704;9.210;2022-12-18T02:15:02;18.25;;;13.65;;
529;SDS011;251;48.704;9.210;2022-12-18T02:17:38;18.45;;;14.00;;
529;SDS011;251;48.704;9.210;2022-12-18T02:20:12;17.00;;;11.50;;
529;SDS011;251;48.704;9.210;2022-12-18T02:22:44;15.00;;;10.85;;
529;SDS011;251;48.704;9.210;2022-12-18T02:25:25;17.80;;;12.18;;
529;SDS011;251;48.704;9.210;2022-12-18T02:28:09;17.00;;;12.48;;
529;SDS011;251;48.704;9.210;2022-12-18T02:30:39;15.68;;;10.30;;
529;SDS011;251;48.704;9.210;2022-12-18T02:33:08;23.00;;;14.35;;
529;SDS011;251;48.704;9.210;2022-12-18T02:35:37;12.88;;;9.50;;
529;SDS011;251;48.704;9.210;2022-12-18T02:38:06;18.83;;;12.98;;
529;SDS011;251;48.704;9.210;2022-12-18T02:40:35;15.02;;;11.65;;
529;SDS011;251;48.704;9.210;2022-12-18T02:43:08;20.73;;;13.15;;
529;SDS011;251;48.704;9.210;2022-12-18T02:45:37;17.02;;;10.73;;
529;SDS011;251;48.704;9.210;2022-12-18T02:48:14;15.23;;;12.88;;
529;SDS011;251;48.704;9.210;2022-12-18T02:50:44;17.83;;;11.23;;
529;SDS011;251;48.704;9.210;2022-12-18T02:53:20;17.23;;;10.43;;
529;SDS011;251;48.704;9.210;2022-12-18T02:55:56;19.50;;;14.05;;
529;SDS011;251;48.704;9.210;2022-12-18T02:58:32;15.27;;;10.98;;
529;SDS011;251;48.704;9.210;2022-12-18T03:01:11;15.38;;;11.73;;
529;SDS011;251;48.704;9.210;2022-12-18T03:03:44;15.18;;;10.00;;
529;SDS011;251;48.704;9.210;2022-12-18T03:06:18;16.17;;;11.85;;
529;SDS011;251;48.704;9.210;2022-12-18T03:08:51;27.58;;;12.35;;
529;SDS011;251;48.704;9.210;2022-12-18T03:11:25;12.68;;;10.52;;
529;SDS011;251;48.704;9.210;2022-12-18T03:14:10;20.10;;;12.68;;
529;SDS011;251;48.704;9.210;2022-12-18T03:16:41;13.48;;;10.73;;
529;SDS011;251;48.704;9.210;2022-12-18T03:19:11;18.08;;;11.75;;
529;SDS011;251;48.704;9.210;2022-12-18T03:21:43;10.85;;;8.85;;
529;SDS011;251;48.704;9.210;2022-12-18T03:24:15;16.70;;;11.43;;
529;SDS011;251;48.704;9.210;2022-12-18T03:26:46;18.77;;;12.65;;
529;SDS011;251;48.704;9.210;2022-12-18T03:29:18;13.55;;;9.95;;
529;SDS011;251;48.704;9.210;2022-12-18T03:31:49;15.27;;;11.50;;
529;SDS011;251;48.704;9.210;2022-12-18T03:34:23;12.95;;;11.02;;
529;SDS011;251;48.704;9.210;2022-12-18T03:36:53;17.65;;;12.63;;
529;SDS011;251;48.704;9.210;2022-12-18T03:39:22;12.30;;;10.35;;
529;SDS011;251;48.704;9.210;2022-12-18T03:41:55;14.30;;;10.75;;
529;SDS011;251;48.704;9.210;2022-12-18T03:44:42;16.02;;;11.45;;
529;SDS011;251;48.704;9.210;2022-12-18T03:47:19;14.00;;;10.63;;
529;SDS011;251;48.704;9.210;2022-12-18T03:49:54;15.77;;;10.75;;
529;SDS011;251;48.704;9.210;2022-12-18T03:52:30;15.30;;;11.73;;
529;SDS011;251;48.704;9.210;2022-12-18T03:55:02;18.23;;;10.38;;
529;SDS011;251;48.704;9.210;2022-12-18T03:57:32;15.25;;;11.85;;
529;SDS011;251;48.704;9.210;2022-12-18T04:00:05;15.77;;;11.52;;
529;SDS011;251;48.704;9.210;2022-12-18T04:02:48;10.18;;;8.30;;
529;SDS011;251;48.704;9.210;2022-12-18T04:05:23;14.50;;;10.10;;
529;SDS011;251;48.704;9.210;2022-12-18T04:07:51;11.93;;;9.50;;
529;SDS011;251;48.704;9.210;2022-12-18T04:10:20;18.33;;;9.90;;
529;SDS011;251;48.704;9.210;2022-12-18T04:12:48;20.20;;;12.25;;
529;SDS011;251;48.704;9.210;2022-12-18T04:15:16;12.20;;;9.55;;
529;SDS011;251;48.704;9.210;2022-12-18T04:17:46;14.52;;;10.95;;
529;SDS011;251;48.704;9.210;2022-12-18T04:20:17;15.38;;;11.00;;
529;SDS011;251;48.704;9.210;2022-12-18T04:22:45;16.15;;;8.77;;
529;SDS011;251;48.704;9.210;2022-12-18T04:25:13;15.93;;;10.35;;
529;SDS011;251;48.704;9.210;2022-12-18T04:31:40;17.67;;;11.63;;
529;SDS011;251;48.704;9.210;2022-12-18T04:34:09;11.98;;;9.82;;
529;SDS011;251;48.704;9.210;2022-12-18T04:36:42;11.95;;;9.10;;
529;SDS011;251;48.704;9.210;2022-12-18T04:39:09;14.15;;;9.50;;
529;SDS011;251;48.704;9.210;2022-12-18T04:41:35;13.10;;;9.80;;
529;SDS011;251;48.704;9.210;2022-12-18T04:44:03;13.52;;;9.95;;
529;SDS011;251;48.704;9.210;2022-12-18T04:46:30;18.17;;;11.25;;
529;SDS011;251;48.704;9.210;2022-12-18T04:48:58;15.32;;;9.10;;
529;SDS011;251;48.704;9.210;2022-12-18T04:51:25;10.45;;;8.30;;
529;SDS011;251;48.704;9.210;2022-12-18T04:53:52;10.85;;;9.43;;
529;SDS011;251;48.704;9.210;2022-12-18T04:56:19;14.02;;;10.93;;
529;SDS011;251;48.704;9.210;2022-12-18T04:58:46;14.52;;;9.75;;
529;SDS011;251;48.704;9.210;2022-12-18T05:01:14;12.88;;;9.50;;
529;SDS011;251;48.704;9.210;2022-12-18T05:03:42;12.15;;;9.50;;
529;SDS011;251;48.704;9.210;2022-12-18T05:06:10;12.35;;;8.80;;
529;SDS011;251;48.704;9.210;2022-12-18T05:08:37;14.75;;;9.60;;
529;SDS011;251;48.704;9.210;2022-12-18T05:11:04;14.75;;;10.10;;
529;SDS011;251;48.704;9.210;2022-12-18T05:28:42;15.27;;;7.85;;
529;SDS011;251;48.704;9.210;2022-12-18T05:31:10;14.90;;;10.02;;
529;SDS011;251;48.704;9.210;2022-12-18T05:33:37;12.55;;;9.45;;
529;SDS011;251;48.704;9.210;2022-12-18T05:36:04;14.70;;;11.23;;
529;SDS011;251;48.704;9.210;2022-12-18T05:38:33;16.15;;;10.98;;
529;SDS011;251;48.704;9.210;2022-12-18T05:41:02;10.88;;;8.90;;
529;SDS011;251;48.704;9.210;2022-12-18T05:43:29;12.95;;;8.93;;
529;SDS011;251;48.704;9.210;2022-12-18T05:45:57;9.93;;;7.97;;
529;SDS011;251;48.704;9.210;2022-12-18T05:48:28;14.55;;;9.80;;
529;SDS011;251;48.704;9.210;2022-12-18T05:50:55;16.13;;;8.75;;
529;SDS011;251;48.704;9.210;2022-12-18T05:53:28;9.50;;;7.70;;
529;SDS011;251;48.704;9.210;2022-12-18T05:55:59;16.17;;;7.07;;
529;SDS011;251;48.704;9.210;2022-12-18T06:02:15;10.68;;;5.25;;
529;SDS011;251;48.704;9.210;2022-12-18T06:04:42;5.57;;;5.13;;
529;SDS011;251;48.704;9.210;2022-12-18T06:07:09;12.05;;;8.23;;
529;SDS011;251;48.704;9.210;2022-12-18T06:09:36;6.80;;;4.20;;
529;SDS011;251;48.704;9.210;2022-12-18T06:12:03;7.95;;;7.07;;
529;SDS011;251;48.704;9.210;2022-12-18T06:14:30;10.32;;;6.40;;
529;SDS011;251;48.704;9.210;2022-12-18T06:16:57;9.40;;;6.35;;
529;SDS011;251;48.704;9.210;2022-12-18T06:19:25;7.18;;;4.30;;
529;SDS011;251;48.704;9.210;2022-12-18T06:21:52;11.20;;;7.00;;
529;SDS011;251;48.704;9.210;2022-12-18T06:24:18;8.88;;;6.28;;
529;SDS011;251;48.704;9.210;2022-12-18T06:26:45;11.63;;;3.42;;
529;SDS011;251;48.704;9.210;2022-12-18T06:29:12;6.32;;;5.65;;
529;SDS011;251;48.704;9.210;2022-12-18T06:31:39;13.18;;;6.72;;
529;SDS011;251;48.704;9.210;2022-12-18T06:34:06;11.25;;;8.23;;
529;SDS011;251;48.704;9.210;2022-12-18T06:36:34;13.48;;;5.38;;
529;SDS011;251;48.704;9.210;2022-12-18T06:39:01;19.60;;;6.70;;
529;SDS011;251;48.704;9.210;2022-12-18T06:41:28;9.02;;;5.10;;
529;SDS011;251;48.704;9.210;2022-12-18T06:43:54;13.35;;;5.75;;
529;SDS011;251;48.704;9.210;2022-12-18T06:46:21;7.40;;;6.68;;
529;SDS011;251;48.704;9.210;2022-12-18T06:48:48;6.63;;;5.95;;
529;SDS011;251;48.704;9.210;2022-12-18T06:51:17;9.55;;;6.15;;
529;SDS011;251;48.704;9.210;2022-12-18T06:53:46;9.73;;;8.77;;
529;SDS011;251;48.704;9.210;2022-12-18T06:56:13;7.35;;;5.93;;
529;SDS011;251;48.704;9.210;2022-12-18T06:58:40;12.93;;;7.47;;
529;SDS011;251;48.704;9.210;2022-12-18T07:01:08;8.52;;;7.55;;
529;SDS011;251;48.704;9.210;2022-12-18T07:03:37;9.07;;;5.88;;
529;SDS011;251;48.704;9.210;2022-12-18T07:06:04;12.30;;;6.70;;
529;SDS011;251;48.704;9.210;2022-12-18T07:08:32;7.38;;;5.68;;
529;SDS011;251;48.704;9.210;2022-12-18T07:11:02;7.50;;;5.57;;
529;SDS011;251;48.704;9.210;2022-12-18T07:13:29;9.52;;;7.38;;
529;SDS011;251;48.704;9.210;2022-12-18T07:16:02;11.13;;;4.93;;
529;SDS011;251;48.704;9.210;2022-12-18T07:18:30;9.35;;;5.35;;
529;SDS011;251;48.704;9.210;2022-12-18T07:20:57;6.85;;;5.20;;
529;SDS011;251;48.704;9.210;2022-12-18T07:23:23;14.77;;;9.13;;
529;SDS011;251;48.704;9.210;2022-12-18T07:25:50;6.65;;;6.15;;
529;SDS011;251;48.704;9.210;2022-12-18T07:28:18;14.65;;;7.35;;
529;SDS011;251;48.704;9.210;2022-12-18T07:30:45;10.85;;;4.18;;
529;SDS011;251;48.704;9.210;2022-12-18T07:33:12;10.45;;;5.57;;
529;SDS011;251;48.704;9.210;2022-12-18T07:35:38;6.78;;;4.60;;
529;SDS011;251;48.704;9.210;2022-12-18T07:38:05;6.70;;;6.05;;
529;SDS011;251;48.704;9.210;2022-12-18T07:40:32;6.15;;;5.00;;
529;SDS011;251;48.704;9.210;2022-12-18T07:42:59;9.20;;;6.20;;
529;SDS011;251;48.704;9.210;2022-12-18T07:45:27;9.80;;;5.95;;
529;SDS011;251;48.704;9.210;2022-12-18T07:47:55;8.40;;;5.57;;
529;SDS011;251;48.704;9.210;2022-12-18T07:50:22;5.85;;;5.30;;
529;SDS011;251;48.704;9.210;2022-12-18T07:52:49;11.20;;;8.38;;
529;SDS011;251;48.704;9.210;2022-12-18T07:55:15;7.70;;;4.13;;
529;SDS011;251;48.704;9.210;2022-12-18T07:57:42;9.43;;;8.57;;
529;SDS011;251;48.704;9.210;2022-12-18T08:00:10;7.50;;;5.32;;
529;SDS011;251;48.704;9.210;2022-12-18T08:02:39;10.23;;;9.40;;
529;SDS011;251;48.704;9.210;2022-12-18T08:05:06;7.88;;;7.10;;
529;SDS011;251;48.704;9.210;2022-12-18T08:07:33;9.60;;;8.48;;
529;SDS011;251;48.704;9.210;2022-12-18T08:10:00;11.13;;;7.28;;
529;SDS011;251;48.704;9.210;2022-12-18T08:12:27;8.40;;;7.55;;
529;SDS011;251;48.704;9.210;2022-12-18T08:14:54;7.70;;;6.03;;
529;SDS011;251;48.704;9.210;2022-12-18T08:17:20;11.68;;;6.70;;
529;SDS011;251;48.704;9.210;2022-12-18T08:19:49;10.52;;;5.65;;
529;SDS011;251;48.704;9.210;2022-12-18T08:22:15;9.43;;;6.60;;
529;SDS011;251;48.704;9.210;2022-12-18T08:24:42;13.93;;;9.20;;
529;SDS011;251;48.704;9.210;2022-12-18T08:27:09;11.68;;;6.72;;
529;SDS011;251;48.704;9.210;2022-12-18T08:29:36;10.68;;;8.25;;
529;SDS011;251;48.704;9.210;2022-12-18T08:32:03;4.55;;;4.13;;
529;SDS011;251;48.704;9.210;2022-12-18T08:34:30;7.60;;;5.57;;
529;SDS011;251;48.704;9.210;2022-12-18T08:36:58;7.88;;;5.50;;
529;SDS011;251;48.704;9.210;2022-12-18T08:39:25;13.98;;;9.77;;
529;SDS011;251;48.704;9.210;2022-12-18T08:41:55;12.98;;;9.35;;
529;SDS011;251;48.704;9.210;2022-12-18T08:44:39;13.60;;;9.02;;
529;SDS011;251;48.704;9.210;2022-12-18T08:47:06;5.85;;;4.93;;
529;SDS011;251;48.704;9.210;2022-12-18T08:49:33;14.70;;;8.07;;
529;SDS011;251;48.704;9.210;2022-12-18T08:52:02;13.27;;;8.63;;
529;SDS011;251;48.704;9.210;2022-12-18T08:54:29;12.82;;;8.98;;
529;SDS011;251;48.704;9.210;2022-12-18T08:56:56;14.73;;;8.85;;
529;SDS011;251;48.704;9.210;2022-12-18T08:59:23;15.88;;;8.75;;
529;SDS011;251;48.704;9.210;2022-12-18T09:01:53;13.07;;;7.68;;
529;SDS011;251;48.704;9.210;2022-12-18T09:04:20;12.80;;;7.22;;
529;SDS011;251;48.704;9.210;2022-12-18T09:06:50;13.70;;;7.15;;
529;SDS011;251;48.704;9.210;2022-12-18T09:09:18;17.15;;;9.10;;
529;SDS011;251;48.704;9.210;2022-12-18T09:11:46;10.90;;;7.13;;
529;SDS011;251;48.704;9.210;2022-12-18T09:14:13;17.23;;;8.20;;
529;SDS011;251;48.704;9.210;2022-12-18T09:16:40;15.40;;;10.15;;
529;SDS011;251;48.704;9.210;2022-12-18T09:19:07;11.35;;;7.78;;
529;SDS011;251;48.704;9.210;2022-12-18T09:21:35;15.40;;;8.27;;
529;SDS011;251;48.704;9.210;2022-12-18T09:24:04;14.90;;;5.10;;
529;SDS011;251;48.704;9.210;2022-12-18T09:26:33;15.13;;;11.60;;
529;SDS011;251;48.704;9.210;2022-12-18T09:29:00;10.05;;;8.40;;
529;SDS011;251;48.704;9.210;2022-12-18T09:31:28;12.57;;;8.35;;
529;SDS011;251;48.704;9.210;2022-12-18T09:33:54;13.68;;;7.80;;
529;SDS011;251;48.704;9.210;2022-12-18T09:36:21;12.73;;;7.07;;
529;SDS011;251;48.704;9.210;2022-12-18T09:38:48;16.48;;;11.43;;
529;SDS011;251;48.704;9.210;2022-12-18T09:41:18;13.15;;;9.65;;
529;SDS011;251;48.704;9.210;2022-12-18T09:44:09;16.67;;;8.65;;
529;SDS011;251;48.704;9.210;2022-12-18T09:46:43;16.83;;;11.52;;
529;SDS011;251;48.704;9.210;2022-12-18T09:49:13;15.77;;;9.80;;
529;SDS011;251;48.704;9.210;2022-12-18T09:51:45;15.32;;;8.75;;
529;SDS011;251;48.704;9.210;2022-12-18T09:54:16;16.17;;;9.60;;
529;SDS011;251;48.704;9.210;2022-12-18T09:56:47;18.73;;;10.48;;
529;SDS011;251;48.704;9.210;2022-12-18T09:59:18;13.65;;;11.75;;
529;SDS011;251;48.704;9.210;2022-12-18T10:01:49;23.35;;;9.70;;
529;SDS011;251;48.704;9.210;2022-12-18T10:04:17;23.55;;;12.20;;
529;SDS011;251;48.704;9.210;2022-12-18T10:06:46;24.58;;;12.63;;
529;SDS011;251;48.704;9.210;2022-12-18T10:09:20;14.48;;;9.25;;
529;SDS011;251;48.704;9.210;2022-12-18T10:11:55;12.32;;;7.53;;
529;SDS011;251;48.704;9.210;2022-12-18T10:14:34;20.40;;;11.55;;
529;SDS011;251;48.704;9.210;2022-12-18T10:17:08;26.02;;;12.73;;
529;SDS011;251;48.704;9.210;2022-12-18T10:19:43;25.83;;;12.38;;
529;SDS011;251;48.704;9.210;2022-12-18T10:22:19;20.08;;;13.13;;
529;SDS011;251;48.704;9.210;2022-12-18T10:24:55;18.58;;;9.93;;
529;SDS011;251;48.704;9.210;2022-12-18T10:27:29;17.88;;;11.02;;
529;SDS011;251;48.704;9.210;2022-12-18T10:29:58;22.98;;;13.10;;
529;SDS011;251;48.704;9.210;2022-12-18T10:32:27;24.98;;;14.27;;
529;SDS011;251;48.704;9.210;2022-12-18T10:34:56;25.42;;;12.32;;
529;SDS011;251;48.704;9.210;2022-12-18T10:37:24;21.17;;;12.27;;
529;SDS011;251;48.704;9.210;2022-12-18T10:40:07;22.92;;;14.23;;
529;SDS011;251;48.704;9.210;2022-12-18T10:42:36;23.98;;;15.57;;
529;SDS011;251;48.704;9.210;2022-12-18T10:45:11;19.02;;;12.80;;
529;SDS011;251;48.704;9.210;2022-12-18T10:47:43;20.08;;;15.50;;
529;SDS011;251;48.704;9.210;2022-12-18T10:50:18;23.92;;;17.27;;
529;SDS011;251;48.704;9.210;2022-12-18T10:52:54;12.07;;;10.55;;
529;SDS011;251;48.704;9.210;2022-12-18T10:55:24;21.25;;;12.32;;
529;SDS011;251;48.704;9.210;2022-12-18T10:57:55;17.48;;;11.07;;
529;SDS011;251;48.704;9.210;2022-12-18T11:00:43;25.50;;;12.98;;
529;SDS011;251;48.704;9.210;2022-12-18T11:06:01;17.17;;;13.80;;
529;SDS011;251;48.704;9.210;2022-12-18T11:08:29;17.63;;;13.65;;
529;SDS011;251;48.704;9.210;2022-12-18T11:10:56;20.10;;;12.10;;
529;SDS011;251;48.704;9.210;2022-12-18T11:13:23;29.60;;;13.70;;
529;SDS011;251;48.704;9.210;2022-12-18T11:15:53;20.58;;;13.65;;
529;SDS011;251;48.704;9.210;2022-12-18T11:18:22;25.88;;;15.35;;
529;SDS011;251;48.704;9.210;2022-12-18T11:20:54;27.08;;;19.27;;
529;SDS011;251;48.704;9.210;2022-12-18T11:23:23;24.00;;;14.93;;
529;SDS011;251;48.704;9.210;2022-12-18T11:25:51;30.67;;;19.58;;
529;SDS011;251;48.704;9.210;2022-12-18T11:28:37;19.45;;;14.93;;
529;SDS011;251;48.704;9.210;2022-12-18T11:31:21;22.65;;;15.43;;
529;SDS011;251;48.704;9.210;2022-12-18T11:33:52;24.63;;;17.38;;
529;SDS011;251;48.704;9.210;2022-12-18T11:36:24;15.50;;;11.80;;
529;SDS011;251;48.704;9.210;2022-12-18T11:38:54;17.05;;;11.32;;
529;SDS011;251;48.704;9.210;2022-12-18T11:41:26;14.80;;;10.52;;
529;SDS011;251;48.704;9.210;2022-12-18T11:44:11;18.92;;;13.98;;
529;SDS011;251;48.704;9.210;2022-12-18T11:46:45;20.23;;;11.80;;
529;SDS011;251;48.704;9.210;2022-12-18T11:49:18;13.32;;;10.07;;
529;SDS011;251;48.704;9.210;2022-12-18T11:51:50;21.00;;;12.93;;
529;SDS011;251;48.704;9.210;2022-12-18T11:54:21;14.25;;;10.75;;
529;SDS011;251;48.704;9.210;2022-12-18T11:56:49;19.42;;;10.77;;
529;SDS011;251;48.704;9.210;2022-12-18T11:59:22;11.30;;;8.82;;
529;SDS011;251;48.704;9.210;2022-12-18T12:02:01;14.00;;;9.55;;
529;SDS011;251;48.704;9.210;2022-12-18T12:04:41;18.00;;;12.50;;
529;SDS011;251;48.704;9.210;2022-12-18T12:07:19;17.83;;;11.48;;
529;SDS011;251;48.704;9.210;2022-12-18T12:09:54;17.80;;;11.23;;
529;SDS011;251;48.704;9.210;2022-12-18T12:12:31;16.25;;;10.60;;
529;SDS011;251;48.704;9.210;2022-12-18T12:15:13;13.75;;;10.02;;
529;SDS011;251;48.704;9.210;2022-12-18T12:17:54;19.90;;;10.13;;
529;SDS011;251;48.704;9.210;2022-12-18T12:20:29;17.50;;;10.20;;
529;SDS011;251;48.704;9.210;2022-12-18T12:23:11;16.73;;;11.20;;
529;SDS011;251;48.704;9.210;2022-12-18T12:25:43;16.60;;;11.63;;
529;SDS011;251;48.704;9.210;2022-12-18T12:28:19;16.05;;;10.50;;
529;SDS011;251;48.704;9.210;2022-12-18T12:30:56;17.75;;;9.45;;
529;SDS011;251;48.704;9.210;2022-12-18T12:33:33;14.77;;;9.25;;
529;SDS011;251;48.704;9.210;2022-12-18T12:36:08;13.73;;;9.55;;
529;SDS011;251;48.704;9.210;2022-12-18T12:38:44;22.35;;;9.30;;
529;SDS011;251;48.704;9.210;2022-12-18T12:41:16;16.75;;;9.55;;
529;SDS011;251;48.704;9.210;2022-12-18T12:44:00;18.75;;;9.45;;
529;SDS011;251;48.704;9.210;2022-12-18T12:46:29;14.50;;;9.65;;
529;SDS011;251;48.704;9.210;2022-12-18T12:49:02;13.38;;;10.60;;
529;SDS011;251;48.704;9.210;2022-12-18T12:51:32;11.98;;;8.20;;
529;SDS011;251;48.704;9.210;2022-12-18T12:54:02;13.45;;;7.70;;
529;SDS011;251;48.704;9.210;2022-12-18T12:56:35;13.70;;;9.15;;
529;SDS011;251;48.704;9.210;2022-12-18T12:59:06;14.52;;;10.38;;
529;SDS011;251;48.704;9.210;2022-12-18T13:01:40;14.18;;;8.45;;
529;SDS011;251;48.704;9.210;2022-12-18T13:04:18;17.23;;;9.68;;
529;SDS011;251;48.704;9.210;2022-12-18T13:06:53;11.88;;;7.47;;
529;SDS011;251;48.704;9.210;2022-12-18T13:09:32;14.18;;;12.15;;
529;SDS011;251;48.704;9.210;2022-12-18T13:12:03;17.05;;;11.32;;
529;SDS011;251;48.704;9.210;2022-12-18T13:14:54;14.90;;;10.45;;
529;SDS011;251;48.704;9.210;2022-12-18T13:17:38;12.32;;;10.25;;
529;SDS011;251;48.704;9.210;2022-12-18T13:20:07;13.40;;;8.90;;
529;SDS011;251;48.704;9.210;2022-12-18T13:22:37;18.27;;;11.95;;
529;SDS011;251;48.704;9.210;2022-12-18T13:27:59;16.90;;;10.68;;
529;SDS011;251;48.704;9.210;2022-12-18T13:30:46;12.57;;;8.52;;
529;SDS011;251;48.704;9.210;2022-12-18T13:36:14;15.30;;;10.27;;
529;SDS011;251;48.704;9.210;2022-12-18T13:41:50;22.65;;;12.02;;
529;SDS011;251;48.704;9.210;2022-12-18T13:44:25;14.65;;;7.18;;
529;SDS011;251;48.704;9.210;2022-12-18T13:46:57;13.73;;;8.80;;
529;SDS011;251;48.704;9.210;2022-12-18T13:49:24;19.58;;;10.38;;
529;SDS011;251;48.704;9.210;2022-12-18T13:51:57;14.25;;;10.40;;
529;SDS011;251;48.704;9.210;2022-12-18T13:54:27;15.88;;;9.73;;
529;SDS011;251;48.704;9.210;2022-12-18T13:56:56;15.73;;;9.40;;
529;SDS011;251;48.704;9.210;2022-12-18T13:59:23;14.77;;;8.88;;
529;SDS011;251;48.704;9.210;2022-12-18T14:01:53;22.85;;;10.05;;
529;SDS011;251;48.704;9.210;2022-12-18T14:04:23;18.08;;;10.85;;
529;SDS011;251;48.704;9.210;2022-12-18T14:06:52;14.43;;;9.23;;
529;SDS011;251;48.704;9.210;2022-12-18T14:09:25;11.88;;;9.55;;
529;SDS011;251;48.704;9.210;2022-12-18T14:11:54;18.23;;;9.82;;
529;SDS011;251;48.704;9.210;2022-12-18T14:14:37;15.18;;;9.43;;
529;SDS011;251;48.704;9.210;2022-12-18T14:17:08;19.25;;;10.05;;
529;SDS011;251;48.704;9.210;2022-12-18T14:19:36;14.35;;;10.10;;
529;SDS011;251;48.704;9.210;2022-12-18T14:22:03;15.45;;;10.40;;
529;SDS011;251;48.704;9.210;2022-12-18T14:24:31;16.30;;;10.10;;
529;SDS011;251;48.704;9.210;2022-12-18T14:26:58;14.90;;;11.05;;
529;SDS011;251;48.704;9.210;2022-12-18T14:29:45;19.67;;;9.75;;
529;SDS011;251;48.704;9.210;2022-12-18T14:32:13;22.40;;;11.70;;
529;SDS011;251;48.704;9.210;2022-12-18T14:34:42;16.00;;;9.55;;
529;SDS011;251;48.704;9.210;2022-12-18T14:37:10;17.05;;;10.23;;
529;SDS011;251;48.704;9.210;2022-12-18T14:39:39;15.77;;;10.98;;
529;SDS011;251;48.704;9.210;2022-12-18T14:42:09;20.52;;;12.55;;
529;SDS011;251;48.704;9.210;2022-12-18T14:44:36;12.57;;;8.32;;
529;SDS011;251;48.704;9.210;2022-12-18T14:47:03;19.98;;;9.60;;
529;SDS011;251;48.704;9.210;2022-12-18T14:49:30;18.75;;;9.55;;
529;SDS011;251;48.704;9.210;2022-12-18T14:52:00;18.42;;;11.02;;
529;SDS011;251;48.704;9.210;2022-12-18T14:54:29;13.88;;;10.07;;
529;SDS011;251;48.704;9.210;2022-12-18T14:56:59;19.52;;;10.82;;
529;SDS011;251;48.704;9.210;2022-12-18T14:59:28;20.95;;;11.38;;
529;SDS011;251;48.704;9.210;2022-12-18T15:01:58;20.08;;;12.88;;
529;SDS011;251;48.704;9.210;2022-12-18T15:04:28;14.90;;;9.27;;
529;SDS011;251;48.704;9.210;2022-12-18T15:07:04;24.10;;;11.13;;
529;SDS011;251;48.704;9.210;2022-12-18T15:09:35;20.45;;;12.35;;
529;SDS011;251;48.704;9.210;2022-12-18T15:12:05;17.25;;;11.00;;
529;SDS011;251;48.704;9.210;2022-12-18T15:14:45;18.13;;;10.00;;
529;SDS011;251;48.704;9.210;2022-12-18T15:17:15;14.20;;;9.90;;
529;SDS011;251;48.704;9.210;2022-12-18T15:19:44;14.02;;;8.75;;
529;SDS011;251;48.704;9.210;2022-12-18T15:22:20;17.15;;;9.15;;
529;SDS011;251;48.704;9.210;2022-12-18T15:24:52;12.20;;;8.52;;
529;SDS011;251;48.704;9.210;2022-12-18T15:27:26;15.07;;;10.40;;
529;SDS011;251;48.704;9.210;2022-12-18T15:32:45;17.00;;;11.63;;
529;SDS011;251;48.704;9.210;2022-12-18T15:35:16;24.92;;;16.73;;
529;SDS011;251;48.704;9.210;2022-12-18T15:37:45;15.00;;;10.77;;
529;SDS011;251;48.704;9.210;2022-12-18T15:40:12;16.67;;;10.73;;
529;SDS011;251;48.704;9.210;2022-12-18T15:42:42;16.58;;;9.30;;
529;SDS011;251;48.704;9.210;2022-12-18T15:45:27;17.00;;;8.10;;
529;SDS011;251;48.704;9.210;2022-12-18T15:47:54;14.27;;;10.35;;
529;SDS011;251;48.704;9.210;2022-12-18T15:50:21;13.93;;;8.57;;
529;SDS011;251;48.704;9.210;2022-12-18T15:52:49;14.88;;;9.15;;
529;SDS011;251;48.704;9.210;2022-12-18T15:55:18;13.00;;;8.70;;
529;SDS011;251;48.704;9.210;2022-12-18T15:58:05;10.10;;;7.43;;
529;SDS011;251;48.704;9.210;2022-12-18T16:00:33;13.05;;;7.45;;
529;SDS011;251;48.704;9.210;2022-12-18T16:03:02;10.32;;;7.95;;
529;SDS011;251;48.704;9.210;2022-12-18T16:05:30;12.48;;;6.97;;
529;SDS011;251;48.704;9.210;2022-12-18T16:07:57;15.30;;;8.98;;
529;SDS011;251;48.704;9.210;2022-12-18T16:10:24;13.82;;;9.00;;
529;SDS011;251;48.704;9.210;2022-12-18T16:12:52;27.65;;;8.43;;
529;SDS011;251;48.704;9.210;2022-12-18T16:15:20;14.95;;;8.80;;
529;SDS011;251;48.704;9.210;2022-12-18T16:17:47;16.30;;;7.95;;
529;SDS011;251;48.704;9.210;2022-12-18T16:20:15;15.05;;;7.90;;
529;SDS011;251;48.704;9.210;2022-12-18T16:22:44;13.50;;;7.97;;
529;SDS011;251;48.704;9.210;2022-12-18T16:25:15;16.40;;;9.27;;
529;SDS011;251;48.704;9.210;2022-12-18T16:27:44;13.63;;;9.32;;
529;SDS011;251;48.704;9.210;2022-12-18T16:30:12;12.68;;;8.63;;
529;SDS011;251;48.704;9.210;2022-12-18T16:32:41;17.48;;;8.35;;